Time;durP1;ratioP1;P1;durP2;ratioP2;P2;SDS_P1;SDS_P2;PMS_P1;PMS_P2;Temp;Humidity;BMP_temperature;BMP_pressure;BME280_temperature;BME280_humidity;BME280_pressure;Samples;Min_cycle;Max_cycle;Signal;HPM_P1;HPM_P2
2023/01/21 00:01:44;;;;;;;0.80;0.75;;;;;;;-0.64;100.00;99460.09;6046453;23;20010;-93
2023/01/21 00:04:09;;;;;;;0.55;0.55;;;;;;;-0.80;100.00;99439.69;6047271;23;20037;-93
2023/01/21 00:06:35;;;;;;;1.95;1.75;;;;;;;-0.80;100.00;99442.44;6046945;23;20010;-93
2023/01/21 00:09:02;;;;;;;0.57;0.57;;;;;;;-0.78;100.00;99453.75;6023593;23;20025;-92
2023/01/21 00:11:28;;;;;;;0.45;0.40;;;;;;;-0.71;100.00;99464.69;6070010;23;20073;-93
2023/01/21 00:13:53;;;;;;;1.88;0.65;;;;;;;-0.77;100.00;99455.31;6069494;23;20033;-93
2023/01/21 00:16:19;;;;;;;0.75;0.70;;;;;;;-0.92;100.00;99410.81;6046351;23;20019;-93
2023/01/21 00:18:46;;;;;;;0.25;0.25;;;;;;;-0.80;100.00;99431.53;6023209;23;20427;-92
2023/01/21 00:21:12;;;;;;;0.10;0.10;;;;;;;-0.73;100.00;99445.25;6022722;23;20452;-94
2023/01/21 00:23:38;;;;;;;0.10;0.10;;;;;;;-0.77;100.00;99444.41;6046132;23;20162;-92
2023/01/21 00:26:05;;;;;;;0.00;0.00;;;;;;;-0.83;100.00;99424.91;6023166;23;20018;-91
2023/01/21 00:28:32;;;;;;;0.32;0.32;;;;;;;-0.81;100.00;99440.88;6071269;23;20002;-93
2023/01/21 00:30:59;;;;;;;1.52;1.00;;;;;;;-0.81;100.00;99446.31;6047966;23;20433;-95
2023/01/21 00:33:25;;;;;;;0.35;0.35;;;;;;;-0.85;100.00;99440.84;6022897;23;20014;-93
2023/01/21 00:36:10;;;;;;;3.60;2.72;;;;;;;-0.79;100.00;99454.88;6047277;23;20472;-92
2023/01/21 00:38:35;;;;;;;0.88;0.88;;;;;;;-0.69;100.00;99459.66;6024025;23;20052;-92
2023/01/21 00:41:07;;;;;;;1.38;1.27;;;;;;;-0.88;100.00;99443.53;6046628;23;20018;-93
2023/01/21 00:43:32;;;;;;;1.15;0.35;;;;;;;-0.70;100.00;99452.66;6045943;23;20022;-92
2023/01/21 00:45:58;;;;;;;0.73;0.52;;;;;;;-0.66;100.00;99459.69;6022665;23;20026;-92
2023/01/21 00:48:25;;;;;;;0.35;0.35;;;;;;;-0.71;100.00;99449.13;6046073;23;20500;-91
2023/01/21 00:50:52;;;;;;;0.10;0.10;;;;;;;-0.76;100.00;99451.41;6046231;23;20025;-92
2023/01/21 00:53:18;;;;;;;0.40;0.40;;;;;;;-0.93;100.00;99415.47;6069960;23;20555;-92
2023/01/21 00:55:43;;;;;;;0.28;0.28;;;;;;;-0.85;100.00;99434.63;6046383;23;20101;-92
2023/01/21 00:58:09;;;;;;;0.50;0.50;;;;;;;-0.63;100.00;99449.97;6045800;23;20357;-92
2023/01/21 01:00:35;;;;;;;0.30;0.30;;;;;;;-0.86;100.00;99400.38;6022392;23;20018;-93
2023/01/21 01:03:00;;;;;;;1.27;1.17;;;;;;;-0.89;100.00;99398.41;6045818;23;20078;-92
2023/01/21 01:05:26;;;;;;;3.13;1.52;;;;;;;-0.84;100.00;99422.56;6022611;23;20038;-93
2023/01/21 01:07:51;;;;;;;0.20;0.20;;;;;;;-0.78;100.00;99432.75;6071009;23;20006;-94
2023/01/21 01:10:17;;;;;;;0.35;0.35;;;;;;;-0.62;100.00;99446.88;6023371;23;20010;-93
2023/01/21 01:12:43;;;;;;;0.60;0.60;;;;;;;-0.60;100.00;99443.78;6023393;23;20010;-92
2023/01/21 01:15:09;;;;;;;2.72;2.45;;;;;;;-0.56;100.00;99445.38;6023932;23;20093;-94
2023/01/21 01:17:35;;;;;;;0.15;0.15;;;;;;;-0.76;100.00;99418.72;6023122;23;20019;-92
2023/01/21 01:20:01;;;;;;;0.82;0.82;;;;;;;-0.73;100.00;99423.44;6047017;23;20017;-92
2023/01/21 01:22:26;;;;;;;0.38;0.38;;;;;;;-0.83;100.00;99407.78;6071720;23;20007;-93
2023/01/21 01:24:52;;;;;;;1.13;0.80;;;;;;;-0.69;100.00;99429.72;6022102;23;20029;-93
2023/01/21 01:27:17;;;;;;;0.98;0.98;;;;;;;-0.52;100.00;99450.84;6022424;23;20397;-92
2023/01/21 01:29:43;;;;;;;0.73;0.73;;;;;;;-0.61;100.00;99428.59;6045858;23;20485;-92
2023/01/21 01:32:09;;;;;;;0.50;0.50;;;;;;;-0.64;100.00;99415.72;6069581;23;20006;-93
2023/01/21 01:34:35;;;;;;;1.55;1.45;;;;;;;-0.77;100.00;99403.56;6068515;23;20097;-92
2023/01/21 01:37:02;;;;;;;0.20;0.20;;;;;;;-0.78;100.00;99388.38;6069890;23;20026;-93
2023/01/21 01:39:27;;;;;;;0.25;0.25;;;;;;;-0.56;100.00;99417.34;6068884;23;20015;-93
2023/01/21 01:41:53;;;;;;;0.82;0.82;;;;;;;-0.53;100.00;99422.84;6094851;23;20082;-93
2023/01/21 01:44:57;;;;;;;1.08;0.55;;;;;;;-0.42;100.00;99422.13;6045069;23;20330;-94
2023/01/21 01:47:28;;;;;;;0.17;0.17;;;;;;;-0.55;100.00;99424.34;6020953;23;20045;-93
2023/01/21 01:49:54;;;;;;;1.90;1.73;;;;;;;-0.52;100.00;99413.50;6045225;23;20042;-92
2023/01/21 01:52:20;;;;;;;0.05;0.05;;;;;;;-0.40;100.00;99417.84;6044250;23;20013;-94
2023/01/21 01:54:52;;;;;;;0.47;0.47;;;;;;;-0.40;100.00;99420.56;6021572;23;20022;-94
2023/01/21 01:57:20;;;;;;;0.50;0.50;;;;;;;-0.57;100.00;99396.72;6045875;23;20022;-93
2023/01/21 01:59:46;;;;;;;3.60;1.08;;;;;;;-0.31;100.00;99450.22;6021171;23;20057;-94
2023/01/21 02:02:18;;;;;;;0.82;0.82;;;;;;;-0.59;100.00;99407.22;6012864;23;20014;-94
2023/01/21 02:05:04;;;;;;;0.80;0.75;;;;;;;-0.30;100.00;99433.50;6057115;23;20090;-89
2023/01/21 02:07:38;;;;;;;0.75;0.75;;;;;;;-0.43;100.00;99420.56;5991226;23;20158;-90
2023/01/21 02:10:12;;;;;;;1.85;1.65;;;;;;;-0.27;100.00;99448.31;6016421;23;20054;-90
2023/01/21 02:12:40;;;;;;;0.40;0.40;;;;;;;-0.27;100.00;99446.38;6014986;23;20451;-88
2023/01/21 02:15:06;;;;;;;0.82;0.82;;;;;;;-0.27;100.00;99438.19;6015166;23;20022;-89
2023/01/21 02:17:47;;;;;;;0.10;0.10;;;;;;;-0.25;100.00;99438.63;6015063;23;20015;-88
2023/01/21 02:20:16;;;;;;;0.40;0.40;;;;;;;-0.23;100.00;99430.03;6015849;23;20466;-89
2023/01/21 02:22:59;;;;;;;0.85;0.85;;;;;;;-0.21;100.00;99428.53;6015454;23;20447;-89
2023/01/21 02:25:59;;;;;;;0.00;0.00;;;;;;;-0.37;100.00;99395.31;5992852;23;20022;-89
2023/01/21 02:28:40;;;;;;;0.10;0.10;;;;;;;-0.17;100.00;99423.88;6001057;23;20440;-89
2023/01/21 02:31:21;;;;;;;0.08;0.08;;;;;;;-0.19;100.00;99415.28;6016306;23;20025;-89
2023/01/21 02:34:08;;;;;;;0.00;0.00;;;;;;;-0.14;100.00;99423.09;6016306;23;20021;-90
2023/01/21 02:36:42;;;;;;;0.35;0.35;;;;;;;-0.17;100.00;99407.50;6016007;23;20026;-90
2023/01/21 02:39:26;;;;;;;0.75;0.75;;;;;;;-0.15;100.00;99416.09;5991975;23;20447;-89
2023/01/21 02:42:04;;;;;;;0.88;0.52;;;;;;;-0.13;100.00;99419.22;6015606;23;20014;-90
2023/01/21 02:44:44;;;;;;;0.38;0.28;;;;;;;-0.11;100.00;99422.34;6015955;23;20447;-88
2023/01/21 02:47:25;;;;;;;1.27;1.23;;;;;;;-0.09;100.00;99414.56;6015400;23;20325;-90
2023/01/21 02:49:57;;;;;;;0.68;0.68;;;;;;;-0.08;100.00;99443.38;6015330;23;20022;-89
2023/01/21 02:52:24;;;;;;;0.38;0.38;;;;;;;-0.11;100.00;99448.81;5993013;23;20019;-89
2023/01/21 02:54:53;;;;;;;0.60;0.35;;;;;;;-0.11;100.00;99446.88;6015793;23;20019;-90
2023/01/21 02:57:51;;;;;;;0.10;0.10;;;;;;;-0.18;100.00;99443.31;6015634;23;20006;-88
2023/01/21 03:00:24;;;;;;;0.65;0.65;;;;;;;-0.08;100.00;99454.28;5993107;23;20015;-88
2023/01/21 03:02:56;;;;;;;0.60;0.60;;;;;;;-0.04;100.00;99463.28;5992632;23;20019;-89
2023/01/21 03:05:34;;;;;;;0.30;0.30;;;;;;;-0.03;100.00;99450.41;6039463;23;20030;-89
2023/01/21 03:08:09;;;;;;;0.10;0.10;;;;;;;-0.04;100.00;99441.47;6015352;23;20102;-90
2023/01/21 03:10:41;;;;;;;0.57;0.57;;;;;;;-0.06;100.00;99467.53;6015903;23;20029;-88
2023/01/21 03:16:55;;;;;;;5.38;0.63;;;;;;;-0.03;100.00;99481.19;5992375;23;20022;-89
2023/01/21 03:18:51;;;;;;;0.30;0.30;;;;;;;-0.03;100.00;99472.22;6019863;23;20019;-89
2023/01/21 03:21:23;;;;;;;1.60;1.52;;;;;;;-0.10;100.00;99488.56;6038808;23;20022;-89
2023/01/21 03:23:50;;;;;;;0.00;0.00;;;;;;;-0.02;100.00;99506.53;6016324;23;20022;-89
2023/01/21 03:26:27;;;;;;;1.60;0.95;;;;;;;-0.11;100.00;99497.88;5990977;23;20026;-89
2023/01/21 03:28:55;;;;;;;0.30;0.30;;;;;;;-0.10;100.00;99500.25;5991285;23;20344;-90
2023/01/21 03:31:27;;;;;;;0.20;0.20;;;;;;;-0.01;100.00;99525.25;6016073;23;20015;-89
2023/01/21 03:33:55;;;;;;;0.00;0.00;;;;;;;-0.02;100.00;99540.03;5991622;23;20523;-90
2023/01/21 03:36:56;;;;;;;0.45;0.40;;;;;;;-0.04;100.00;99547.78;6016074;23;20038;-90
2023/01/21 03:39:56;;;;;;;0.80;0.80;;;;;;;0.01;100.00;99543.94;5931033;24;20479;-89
2023/01/21 03:42:22;;;;;;;0.00;0.00;;;;;;;0.00;100.00;99547.84;6015266;23;20040;-90
2023/01/21 03:44:48;;;;;;;0.50;0.50;;;;;;;0.02;100.00;99547.44;6015940;23;20067;-89
2023/01/21 03:47:32;;;;;;;2.35;1.38;;;;;;;-0.08;100.00;99524.41;6015747;23;20010;-91
2023/01/21 03:50:12;;;;;;;0.43;0.43;;;;;;;0.00;100.00;99537.69;6015699;23;20015;-89
2023/01/21 03:52:43;;;;;;;0.75;0.75;;;;;;;0.03;100.00;99524.47;6016088;23;20030;-89
2023/01/21 03:55:10;;;;;;;0.17;0.17;;;;;;;-0.14;100.00;99491.25;6014256;23;20015;-89
2023/01/21 03:57:36;;;;;;;1.02;1.02;;;;;;;-0.06;100.00;99511.94;6013928;23;20108;-90
2023/01/21 04:00:04;;;;;;;0.20;0.20;;;;;;;0.00;100.00;99515.88;5991657;23;20015;-89
2023/01/21 04:02:30;;;;;;;0.10;0.10;;;;;;;0.01;100.00;99511.22;6015990;23;20010;-89
2023/01/21 04:04:55;;;;;;;0.65;0.65;;;;;;;-0.08;100.00;99508.06;6014167;23;20473;-89
2023/01/21 04:07:21;;;;;;;1.40;1.02;;;;;;;-0.01;100.00;99514.34;6016108;23;20059;-91
2023/01/21 04:09:48;;;;;;;2.55;2.35;;;;;;;-0.01;100.00;99514.34;6016798;23;20026;-90
2023/01/21 04:12:14;;;;;;;0.10;0.10;;;;;;;-0.12;100.00;99490.88;6016830;23;20006;-89
2023/01/21 04:14:40;;;;;;;2.05;1.05;;;;;;;0.01;100.00;99511.22;6017408;23;20030;-89
2023/01/21 04:17:06;;;;;;;0.35;0.35;;;;;;;0.00;100.00;99512.41;6017537;23;20093;-91
2023/01/21 04:19:31;;;;;;;1.58;1.48;;;;;;;0.00;100.00;99513.16;6016675;23;20086;-90
2023/01/21 04:21:57;;;;;;;3.30;1.25;;;;;;;-0.05;100.00;99508.06;6016797;23;20006;-90
2023/01/21 04:24:23;;;;;;;0.10;0.10;;;;;;;-0.01;100.00;99508.88;6017173;23;20015;-90
2023/01/21 04:26:48;;;;;;;0.10;0.10;;;;;;;-0.02;100.00;99518.22;6015545;23;20352;-90
2023/01/21 04:29:14;;;;;;;0.52;0.52;;;;;;;-0.02;100.00;99507.31;6015623;23;20062;-89
2023/01/21 04:31:40;;;;;;;0.30;0.30;;;;;;;-0.02;100.00;99504.59;6012461;23;20466;-90
2023/01/21 04:34:05;;;;;;;0.20;0.20;;;;;;;-0.04;100.00;99525.97;5992817;23;20015;-90
2023/01/21 04:36:31;;;;;;;0.65;0.65;;;;;;;-0.01;100.00;99519.78;5993735;23;20333;-90
2023/01/21 04:38:57;;;;;;;0.65;0.65;;;;;;;0.00;100.00;99504.97;6016638;23;20019;-90
2023/01/21 04:41:25;;;;;;;0.30;0.30;;;;;;;-0.02;100.00;99518.22;5992559;23;20489;-89
2023/01/21 04:43:51;;;;;;;1.05;0.77;;;;;;;-0.05;100.00;99494.44;6016707;23;20025;-90
2023/01/21 04:46:16;;;;;;;3.70;0.70;;;;;;;-0.03;100.00;99507.69;6014401;23;20355;-90
2023/01/21 04:48:42;;;;;;;0.10;0.10;;;;;;;-0.02;100.00;99495.63;5992056;23;20015;-90
2023/01/21 04:51:07;;;;;;;3.45;2.63;;;;;;;-0.06;100.00;99490.16;6015747;23;20007;-89
2023/01/21 04:53:33;;;;;;;0.17;0.17;;;;;;;-0.03;100.00;99488.59;5992700;23;20023;-89
2023/01/21 04:55:59;;;;;;;0.10;0.10;;;;;;;-0.14;100.00;99472.16;6015548;23;20456;-88
2023/01/21 04:58:26;;;;;;;0.40;0.40;;;;;;;-0.07;100.00;99466.75;6040001;23;20396;-90
2023/01/21 05:00:53;;;;;;;0.10;0.10;;;;;;;0.00;100.00;99483.16;5991568;23;20011;-87
2023/01/21 05:03:19;;;;;;;0.50;0.50;;;;;;;-0.06;100.00;99476.50;6035088;23;20011;-87
2023/01/21 05:05:44;;;;;;;0.35;0.35;;;;;;;-0.06;100.00;99468.34;6011847;23;20019;-87
2023/01/21 05:08:10;;;;;;;1.17;1.10;;;;;;;-0.04;100.00;99476.91;5988817;23;20454;-88
2023/01/21 05:10:36;;;;;;;0.15;0.15;;;;;;;-0.02;100.00;99477.31;5988068;23;20467;-88
2023/01/21 05:13:01;;;;;;;1.00;0.93;;;;;;;0.00;100.00;99477.72;6035810;23;20344;-88
2023/01/21 05:15:27;;;;;;;1.65;0.98;;;;;;;-0.02;100.00;99479.25;6012181;23;20008;-87
2023/01/21 05:17:52;;;;;;;1.15;1.15;;;;;;;-0.02;100.00;99496.41;6035993;23;20393;-87
2023/01/21 05:20:18;;;;;;;1.23;1.13;;;;;;;-0.03;100.00;99489.38;6059589;23;20015;-88
2023/01/21 05:22:47;;;;;;;2.58;1.17;;;;;;;0.00;100.00;99504.97;6035934;23;20452;-87
2023/01/21 05:25:13;;;;;;;0.80;0.80;;;;;;;-0.01;100.00;99508.88;6011925;23;20000;-88
2023/01/21 05:27:39;;;;;;;0.75;0.75;;;;;;;-0.01;100.00;99517.06;6035199;23;20022;-88
2023/01/21 05:30:05;;;;;;;0.50;0.45;;;;;;;-0.02;100.00;99517.44;6035648;23;20015;-87
2023/01/21 05:32:31;;;;;;;1.67;1.58;;;;;;;-0.02;100.00;99523.66;6012217;23;20007;-87
2023/01/21 05:34:57;;;;;;;1.88;0.68;;;;;;;0.00;100.00;99520.56;5988181;23;20178;-87
2023/01/21 05:37:22;;;;;;;5.75;1.45;;;;;;;-0.11;100.00;99509.56;5988533;23;20019;-88
2023/01/21 05:39:48;;;;;;;0.25;0.25;;;;;;;-0.14;100.00;99480.34;6012005;23;20043;-88
2023/01/21 05:42:13;;;;;;;2.10;2.00;;;;;;;-0.01;100.00;99513.56;5988436;23;20070;-88
2023/01/21 05:44:39;;;;;;;1.38;0.95;;;;;;;-0.02;100.00;99514.69;6011965;23;20015;-88
2023/01/21 05:47:06;;;;;;;2.17;0.98;;;;;;;-0.05;100.00;99529.88;6035557;23;20347;-88
2023/01/21 05:49:32;;;;;;;2.13;1.35;;;;;;;-0.10;100.00;99522.06;5988778;23;20194;-88
2023/01/21 05:51:57;;;;;;;1.52;1.27;;;;;;;-0.01;100.00;99522.50;6011831;23;20444;-87
2023/01/21 05:54:23;;;;;;;0.55;0.52;;;;;;;-0.01;100.00;99532.63;6035919;23;20501;-88
2023/01/21 05:56:48;;;;;;;0.20;0.20;;;;;;;-0.05;100.00;99527.16;6011783;23;20013;-87
2023/01/21 05:59:14;;;;;;;0.77;0.77;;;;;;;-0.05;100.00;99529.88;6035455;23;20019;-88
2023/01/21 06:01:39;;;;;;;1.88;1.50;;;;;;;-0.01;100.00;99536.16;6012088;23;20015;-88
2023/01/21 06:04:05;;;;;;;1.10;1.00;;;;;;;-0.02;100.00;99547.41;6034979;23;20070;-88
2023/01/21 06:06:31;;;;;;;0.47;0.47;;;;;;;0.00;100.00;99548.59;6011504;23;20022;-87
2023/01/21 06:08:56;;;;;;;0.47;0.47;;;;;;;-0.02;100.00;99531.06;6011307;23;20023;-87
2023/01/21 06:11:22;;;;;;;1.23;0.75;;;;;;;0.00;100.00;99553.28;6011299;23;20019;-88
2023/01/21 06:13:47;;;;;;;2.65;2.45;;;;;;;0.03;100.00;99540.84;6011912;23;20385;-87
2023/01/21 06:16:13;;;;;;;0.98;0.98;;;;;;;0.01;100.00;99543.94;6035235;23;20019;-87
2023/01/21 06:18:38;;;;;;;3.30;1.75;;;;;;;-0.08;100.00;99511.53;6012049;23;20066;-88
2023/01/21 06:21:04;;;;;;;0.43;0.43;;;;;;;-0.12;100.00;99518.16;6011752;23;20019;-87
2023/01/21 06:23:30;;;;;;;1.27;1.17;;;;;;;-0.06;100.00;99528.31;6011852;23;20007;-88
2023/01/21 06:26:02;;;;;;;0.45;0.45;;;;;;;-0.08;100.00;99522.44;6011086;23;20074;-87
2023/01/21 06:28:28;;;;;;;0.25;0.25;;;;;;;-0.01;100.00;99536.16;6012170;23;20387;-88
2023/01/21 06:30:54;;;;;;;0.57;0.57;;;;;;;0.00;100.00;99543.16;6034923;23;20432;-88
2023/01/21 06:33:19;;;;;;;0.98;0.98;;;;;;;-0.07;100.00;99525.94;6034894;23;20010;-88
2023/01/21 06:35:46;;;;;;;0.77;0.77;;;;;;;-0.11;100.00;99530.59;5986921;23;20007;-88
2023/01/21 06:38:12;;;;;;;0.32;0.32;;;;;;;-0.01;100.00;99552.50;5987466;23;20071;-88
2023/01/21 06:40:37;;;;;;;0.50;0.50;;;;;;;-0.01;100.00;99557.97;6010352;23;20003;-88
2023/01/21 06:43:03;;;;;;;1.08;0.60;;;;;;;0.00;100.00;99559.50;6033563;23;20013;-88
2023/01/21 06:45:29;;;;;;;0.88;0.70;;;;;;;0.02;100.00;99569.25;5986953;23;20102;-87
2023/01/21 06:47:54;;;;;;;0.30;0.30;;;;;;;-0.13;100.00;99538.38;6010673;23;20017;-88
2023/01/21 06:50:20;;;;;;;1.20;1.02;;;;;;;0.03;100.00;99562.66;6033452;23;20007;-88
2023/01/21 06:52:46;;;;;;;1.45;1.35;;;;;;;-0.11;100.00;99547.75;6034248;23;20015;-88
2023/01/21 06:55:13;;;;;;;1.90;1.80;;;;;;;-0.16;100.00;99545.34;6011169;23;20352;-88
2023/01/21 06:57:38;;;;;;;0.82;0.45;;;;;;;0.02;100.00;99561.06;6035067;23;19999;-87
2023/01/21 07:00:06;;;;;;;0.68;0.63;;;;;;;0.03;100.00;99559.94;5987810;23;20018;-87
2023/01/21 07:02:31;;;;;;;3.40;0.90;;;;;;;-0.04;100.00;99547.78;6011516;23;20007;-88
2023/01/21 07:04:57;;;;;;;0.10;0.10;;;;;;;-0.23;100.00;99549.97;6010048;23;20026;-88
2023/01/21 07:07:22;;;;;;;0.40;0.40;;;;;;;-0.03;100.00;99581.28;6035200;23;20015;-88
2023/01/21 07:09:48;;;;;;;1.60;0.93;;;;;;;-0.02;100.00;99580.94;6011632;23;20004;-88
2023/01/21 07:12:14;;;;;;;3.03;1.15;;;;;;;-0.03;100.00;99590.25;6034224;23;20015;-87
2023/01/21 07:14:39;;;;;;;3.03;1.88;;;;;;;-0.07;100.00;99586.72;6034964;23;20026;-87
2023/01/21 07:17:05;;;;;;;0.98;0.98;;;;;;;0.02;100.00;99604.72;6011276;23;20019;-89
2023/01/21 07:19:30;;;;;;;1.10;1.10;;;;;;;-0.01;100.00;99612.50;6011750;23;20439;-88
2023/01/21 07:21:56;;;;;;;0.82;0.82;;;;;;;0.04;100.00;99610.59;6034758;23;20019;-87
2023/01/21 07:24:21;;;;;;;1.50;1.40;;;;;;;0.05;100.00;99623.03;6011118;23;20083;-88
2023/01/21 07:26:47;;;;;;;0.90;0.90;;;;;;;0.04;100.00;99635.13;6033350;23;20018;-87
2023/01/21 07:29:13;;;;;;;0.25;0.25;;;;;;;-0.07;100.00;99624.09;6008892;23;20015;-85
2023/01/21 07:31:38;;;;;;;0.40;0.40;;;;;;;-0.02;100.00;99632.72;6033383;23;20015;-87
2023/01/21 07:34:04;;;;;;;0.93;0.93;;;;;;;0.03;100.00;99644.47;6010759;23;20123;-86
2023/01/21 07:36:30;;;;;;;0.30;0.30;;;;;;;0.05;100.00;99661.22;6034176;23;20022;-87
2023/01/21 07:38:56;;;;;;;1.25;1.20;;;;;;;-0.01;100.00;99650.66;6034950;23;20204;-87
2023/01/21 07:41:22;;;;;;;1.80;1.30;;;;;;;-0.06;100.00;99639.31;6034108;23;20392;-86
2023/01/21 07:43:49;;;;;;;0.40;0.40;;;;;;;-0.02;100.00;99660.00;6011238;23;20015;-87
2023/01/21 07:46:18;;;;;;;2.17;1.73;;;;;;;0.02;100.00;99667.44;6012049;23;20027;-86
2023/01/21 07:48:47;;;;;;;0.38;0.38;;;;;;;0.01;100.00;99674.81;6013454;23;20015;-86
2023/01/21 07:51:12;;;;;;;2.70;0.47;;;;;;;-0.03;100.00;99674.78;6036471;23;20198;-85
2023/01/21 07:53:38;;;;;;;2.92;1.80;;;;;;;-0.08;100.00;99661.47;5989822;23;20597;-86
2023/01/21 07:56:05;;;;;;;0.45;0.45;;;;;;;0.03;100.00;99671.72;6035832;23;20011;-86
2023/01/21 07:58:30;;;;;;;3.30;2.53;;;;;;;-0.07;100.00;99641.25;6012855;23;20090;-86
2023/01/21 08:00:56;;;;;;;1.25;1.17;;;;;;;0.00;100.00;99663.13;6012727;23;20059;-86
2023/01/21 08:03:23;;;;;;;0.32;0.32;;;;;;;-0.01;100.00;99649.88;5980239;23;20031;-86
2023/01/21 08:05:50;;;;;;;0.80;0.80;;;;;;;-0.01;100.00;99660.78;5984948;23;20020;-86
2023/01/21 08:08:17;;;;;;;1.25;1.17;;;;;;;0.00;100.00;99673.28;5984819;23;20027;-86
2023/01/21 08:10:43;;;;;;;1.05;0.98;;;;;;;-0.05;100.00;99666.22;5961101;23;20063;-85
2023/01/21 08:13:08;;;;;;;0.20;0.20;;;;;;;-0.21;100.00;99637.59;6007589;23;20003;-86
2023/01/21 08:15:34;;;;;;;0.93;0.93;;;;;;;-0.01;100.00;99672.47;5984583;23;20023;-86
2023/01/21 08:18:00;;;;;;;1.10;1.02;;;;;;;-0.04;100.00;99667.75;5956590;24;20505;-85
2023/01/21 08:20:26;;;;;;;0.50;0.50;;;;;;;-0.05;100.00;99671.66;5958606;23;20023;-86
2023/01/21 08:22:51;;;;;;;1.10;1.05;;;;;;;-0.06;100.00;99642.03;5983076;23;20377;-86
2023/01/21 08:25:17;;;;;;;0.10;0.10;;;;;;;-0.01;100.00;99667.03;5954505;23;20016;-85
2023/01/21 08:27:42;;;;;;;0.32;0.32;;;;;;;0.03;100.00;99661.59;5981234;23;20019;-85
2023/01/21 08:30:08;;;;;;;0.50;0.50;;;;;;;0.06;100.00;99663.56;6006067;23;20276;-86
2023/01/21 08:32:34;;;;;;;0.93;0.77;;;;;;;0.05;100.00;99663.94;5982645;23;20016;-87
2023/01/21 08:34:59;;;;;;;0.50;0.50;;;;;;;0.04;100.00;99659.66;5982135;23;20020;-87
2023/01/21 08:37:25;;;;;;;0.95;0.95;;;;;;;-0.03;100.00;99652.19;5959633;23;20083;-87
2023/01/21 08:39:51;;;;;;;2.55;2.38;;;;;;;0.02;100.00;99657.31;5959246;23;20012;-87
2023/01/21 08:42:16;;;;;;;1.20;1.20;;;;;;;-0.03;100.00;99642.06;6005368;23;20022;-87
2023/01/21 08:44:42;;;;;;;0.60;0.60;;;;;;;0.10;100.00;99648.03;5959379;23;20481;-86
2023/01/21 08:47:07;;;;;;;0.73;0.73;;;;;;;0.04;100.00;99641.38;5960426;23;20487;-88
2023/01/21 08:49:33;;;;;;;0.52;0.52;;;;;;;0.04;100.00;99641.38;5937777;23;20098;-88
2023/01/21 08:51:58;;;;;;;0.35;0.35;;;;;;;0.08;100.00;99649.56;5960423;23;20024;-86
2023/01/21 08:54:24;;;;;;;0.43;0.43;;;;;;;0.05;100.00;99653.03;5984022;23;20016;-86
2023/01/21 08:56:49;;;;;;;0.15;0.15;;;;;;;-0.03;100.00;99642.06;5960034;23;20044;-87
2023/01/21 08:59:15;;;;;;;0.85;0.73;;;;;;;0.07;100.00;99661.63;5960114;23;20451;-87
2023/01/21 09:01:42;;;;;;;2.00;1.85;;;;;;;0.05;100.00;99653.81;6001614;23;20022;-88
2023/01/21 09:04:08;;;;;;;0.20;0.20;;;;;;;0.07;100.00;99673.34;5988751;23;20021;-88
2023/01/21 09:06:33;;;;;;;1.42;1.33;;;;;;;-0.03;100.00;99652.19;5992461;23;20015;-86
2023/01/21 09:08:59;;;;;;;0.63;0.63;;;;;;;0.08;100.00;99682.31;6015619;23;20081;-88
2023/01/21 09:11:25;;;;;;;0.90;0.90;;;;;;;0.08;100.00;99685.03;6033353;23;20381;-88
2023/01/21 09:13:51;;;;;;;0.32;0.32;;;;;;;0.06;100.00;99677.22;6016124;23;20006;-88
2023/01/21 09:16:20;;;;;;;0.45;0.45;;;;;;;0.11;100.00;99684.28;6064359;23;20089;-88
2023/01/21 09:18:46;;;;;;;2.20;1.10;;;;;;;0.06;100.00;99668.25;6015644;23;20514;-88
2023/01/21 09:21:12;;;;;;;0.68;0.68;;;;;;;0.14;100.00;99684.31;6015354;23;20039;-88
2023/01/21 09:23:39;;;;;;;0.85;0.85;;;;;;;0.07;100.00;99667.09;6039499;23;20039;-88
2023/01/21 09:26:16;;;;;;;2.40;1.30;;;;;;;0.13;100.00;99676.47;6038806;23;20023;-87
2023/01/21 09:28:43;;;;;;;1.60;1.50;;;;;;;0.11;100.00;99657.78;6015786;23;20022;-87
2023/01/21 09:31:11;;;;;;;1.27;1.17;;;;;;;0.09;100.00;99659.31;6010359;23;20439;-88
2023/01/21 09:33:40;;;;;;;0.20;0.20;;;;;;;0.14;100.00;99650.78;6037259;23;20102;-87
2023/01/21 09:36:08;;;;;;;0.70;0.70;;;;;;;0.21;100.00;99656.28;6015007;23;20010;-88
2023/01/21 09:38:33;;;;;;;0.57;0.57;;;;;;;0.28;100.00;99672.75;6038163;23;20352;-87
2023/01/21 09:41:20;;;;;;;0.73;0.70;;;;;;;0.30;100.00;99664.94;6014233;23;20003;-87
2023/01/21 09:44:04;;;;;;;1.13;1.08;;;;;;;0.22;100.00;99642.28;6039449;23;20046;-87
2023/01/21 09:46:53;;;;;;;2.00;1.90;;;;;;;0.36;100.00;99664.25;6038710;23;20019;-88
2023/01/21 09:49:50;;;;;;;1.65;1.13;;;;;;;0.33;100.00;99648.59;5992193;23;20022;-87
2023/01/21 09:52:28;;;;;;;0.20;0.20;;;;;;;0.34;100.00;99649.41;6008176;23;20097;-88
2023/01/21 09:54:55;;;;;;;0.57;0.57;;;;;;;0.20;100.00;99631.00;5992353;23;20432;-88
2023/01/21 09:57:56;;;;;;;1.42;1.33;;;;;;;0.37;100.00;99646.69;6015038;23;20003;-89
2023/01/21 10:00:28;;;;;;;0.30;0.30;;;;;;;0.37;100.00;99662.28;5991602;23;20482;-88
2023/01/21 10:03:21;;;;;;;1.20;1.10;;;;;;;0.35;100.00;99653.69;6015257;23;20018;-88
2023/01/21 10:06:12;;;;;;;0.45;0.45;;;;;;;0.36;100.00;99666.19;6015008;23;20018;-87
2023/01/21 10:08:59;;;;;;;2.72;1.08;;;;;;;0.30;100.00;99654.81;6039256;23;20023;-87
2023/01/21 10:11:41;;;;;;;0.15;0.15;;;;;;;0.35;100.00;99640.06;6014775;23;20023;-87
2023/01/21 10:14:22;;;;;;;1.50;1.02;;;;;;;0.35;100.00;99648.25;6014431;23;20085;-87
2023/01/21 10:17:10;;;;;;;0.17;0.17;;;;;;;0.32;100.00;99651.72;6039213;23;20019;-87
2023/01/21 10:19:42;;;;;;;0.70;0.70;;;;;;;0.23;100.00;99641.13;6038731;23;20062;-86
2023/01/21 10:22:20;;;;;;;0.63;0.63;;;;;;;0.35;100.00;99650.97;6064222;23;20026;-89
2023/01/21 10:24:54;;;;;;;0.32;0.32;;;;;;;0.38;100.00;99631.09;6038642;23;20418;-87
2023/01/21 10:27:21;;;;;;;4.90;1.73;;;;;;;0.38;100.00;99650.22;6014317;23;20090;-87
2023/01/21 10:29:54;;;;;;;4.18;0.60;;;;;;;0.32;100.00;99646.28;6013934;23;20023;-87
2023/01/21 10:32:23;;;;;;;1.65;1.55;;;;;;;0.38;100.00;99652.94;6038874;23;20015;-87
2023/01/21 10:34:53;;;;;;;1.90;1.80;;;;;;;0.36;100.00;99652.53;6037851;23;20053;-86
2023/01/21 10:37:44;;;;;;;0.30;0.30;;;;;;;0.33;100.00;99661.47;6014963;23;20042;-87
2023/01/21 10:40:41;;;;;;;0.10;0.10;;;;;;;0.35;100.00;99656.44;6038594;23;20355;-86
2023/01/21 10:43:35;;;;;;;0.60;0.60;;;;;;;0.33;100.00;99664.97;6038177;23;20095;-87
2023/01/21 10:46:29;;;;;;;5.05;3.22;;;;;;;0.34;100.00;99649.41;6014071;23;20014;-86
2023/01/21 10:49:14;;;;;;;;;;;;;;;0.36;100.00;99668.91;6015018;23;20043;-87
2023/01/21 10:51:51;;;;;;;2.17;1.85;;;;;;;0.34;100.00;99668.50;6037953;23;19921;-88
2023/01/21 10:54:30;;;;;;;0.20;0.20;;;;;;;0.37;100.00;99659.53;6038187;23;20022;-87
2023/01/21 10:57:34;;;;;;;0.70;0.70;;;;;;;0.37;100.00;99671.25;6013570;23;20026;-88
2023/01/21 11:00:02;;;;;;;0.17;0.17;;;;;;;0.34;100.00;99666.56;6061829;23;20356;-87
2023/01/21 11:02:32;;;;;;;0.43;0.43;;;;;;;0.33;100.00;99664.19;6014536;23;20019;-86
2023/01/21 11:05:01;;;;;;;0.10;0.10;;;;;;;0.20;100.00;99654.75;6037652;23;20146;-86
2023/01/21 11:07:36;;;;;;;1.10;1.10;;;;;;;0.29;100.00;99669.63;6038618;23;20030;-86
2023/01/21 11:10:04;;;;;;;0.25;0.17;;;;;;;0.26;100.00;99664.13;6038641;23;20019;-86
2023/01/21 11:12:31;;;;;;;0.20;0.20;;;;;;;0.22;100.00;99669.56;5989614;23;20103;-86
2023/01/21 11:15:00;;;;;;;1.13;1.08;;;;;;;0.28;100.00;99668.06;6012972;23;20023;-87
2023/01/21 11:17:37;;;;;;;0.45;0.45;;;;;;;0.26;100.00;99678.56;6038773;23;20510;-86
2023/01/21 11:20:29;;;;;;;1.85;1.63;;;;;;;0.27;100.00;99676.63;6039287;23;20025;-87
2023/01/21 11:23:03;;;;;;;1.17;1.00;;;;;;;0.19;100.00;99666.81;6043423;23;20435;-87
2023/01/21 11:25:40;;;;;;;0.32;0.30;;;;;;;0.26;100.00;99680.50;6039828;23;20058;-87
2023/01/21 11:28:21;;;;;;;0.15;0.15;;;;;;;0.31;100.00;99680.16;6016901;23;20021;-87
2023/01/21 11:30:47;;;;;;;0.28;0.28;;;;;;;0.23;100.00;99667.63;6039043;23;20094;-87
2023/01/21 11:33:21;;;;;;;1.38;0.85;;;;;;;0.19;100.00;99661.34;6040302;23;20355;-87
2023/01/21 11:35:46;;;;;;;1.15;0.90;;;;;;;0.18;100.00;99678.88;6016125;23;20553;-87
2023/01/21 11:38:34;;;;;;;1.10;0.98;;;;;;;0.22;100.00;99679.69;6016820;23;20006;-88
2023/01/21 11:46:27;;;;;;;0.40;0.40;;;;;;;0.05;100.00;99674.84;6030053;23;21264;-91
2023/01/21 11:49:08;;;;;;;0.03;0.03;;;;;;;0.00;100.00;99695.84;6030212;23;20019;-93
2023/01/21 11:51:34;;;;;;;1.27;0.93;;;;;;;-0.08;100.00;99672.38;6038884;23;20014;-91